METAR AND TAF INFORMATION
METAR FOR KBVS
ADDS - METARS form results

(1627 UTC 05 April 2020)
Data provider http://aviationweather.gov/metar/data/
 
METAR text: KBVS 051615Z AUTO 00000KT 10SM FEW070 OVC085 07/02 A2967 RMK A01
Conditions at: KBVS (BURLINGTON/MT V , WA, US) observed 1615 UTC 05 April 2020
Temperature: 7.0°C (45°F)
Dewpoint: 2.0°C (36°F) [RH = 70%]
Pressure (altimeter): 29.67 inches Hg (1004.8 mb)
Winds: calm
Visibility: 10 or more miles (16+ km)
Ceiling: 8500 feet AGL
Clouds: few clouds at 7000 feet AGL
overcast cloud deck at 8500 feet AGL
Weather: automated observation with no human augmentation;
there may or may not be significant weather present at this time

METAR text: KBVS 051555Z AUTO 36003KT 10SM OVC085 05/02 A2967 RMK A01
Conditions at: KBVS (BURLINGTON/MT V , WA, US) observed 1555 UTC 05 April 2020
Temperature: 5.0°C (41°F)
Dewpoint: 2.0°C (36°F) [RH = 81%]
Pressure (altimeter): 29.67 inches Hg (1004.8 mb)
Winds: from the N (360 degrees) at 3 MPH (3 knots; 1.5 m/s)
Visibility: 10 or more miles (16+ km)
Ceiling: 8500 feet AGL
Clouds: overcast cloud deck at 8500 feet AGL
Weather: automated observation with no human augmentation;
there may or may not be significant weather present at this time

METAR text: KBVS 051535Z AUTO 04004KT 10SM OVC085 05/01 A2967 RMK A01
Conditions at: KBVS (BURLINGTON/MT V , WA, US) observed 1535 UTC 05 April 2020
Temperature: 5.0°C (41°F)
Dewpoint: 1.0°C (34°F) [RH = 75%]
Pressure (altimeter): 29.67 inches Hg (1004.8 mb)
Winds: from the NE (40 degrees) at 5 MPH (4 knots; 2.1 m/s)
Visibility: 10 or more miles (16+ km)
Ceiling: 8500 feet AGL
Clouds: overcast cloud deck at 8500 feet AGL
Weather: automated observation with no human augmentation;
there may or may not be significant weather present at this time

 AIRPORT MAP

 RUNWAY INFORMATION
Runway 04 Runway length 3000 ft Runway width 60 ft
Runway elevation 84 ft Runway displaced threshold 0 ft Runway heading 56
Runway 22 Runway length 3000 ft Runway width 60 ft
Runway elevation 97 ft Runway displaced threshold 0 ft Runway heading 236
Runway 10 Runway length 5477 ft Runway width 100 ft
Runway elevation 144 ft Runway displaced threshold 0 ft Runway heading 126
Runway 28 Runway length 5477 ft Runway width 100 ft
Runway elevation 98 ft Runway displaced threshold 0 ft Runway heading 306

 AIRPORT FREQUENCIES
Type A/D Name WHIDBEY AP Frequency 120.7 MHZ
Type AWOS Name AWOS 3 Frequency 121.125 MHZ
Type UNIC Name CTAF/UNICO Frequency 123.075 MHZ

 AIRPORT NEAR NAVIGATION AIDS



Powered by Virtual Airlines Manager [v2.6.2]

Impressum | Datenschutz